createdAt,value
2023-07-25T00:00:03.490Z,26.59
2023-07-25T00:02:31.718Z,26.63
2023-07-25T00:05:00.319Z,26.53
2023-07-25T00:07:29.043Z,26.59
2023-07-25T00:09:58.170Z,26.61
2023-07-25T00:12:27.100Z,26.65
2023-07-25T00:14:56.363Z,26.72
2023-07-25T00:17:25.003Z,26.59
2023-07-25T00:19:53.658Z,26.40
2023-07-25T00:22:22.557Z,26.42
2023-07-25T00:24:51.299Z,26.59
2023-07-25T00:27:19.984Z,26.58
2023-07-25T00:29:49.874Z,26.47
2023-07-25T00:32:18.538Z,26.49
2023-07-25T00:34:47.184Z,26.44
2023-07-25T00:37:15.836Z,26.35
2023-07-25T00:39:44.414Z,26.52
2023-07-25T00:42:12.851Z,26.25
2023-07-25T00:44:41.451Z,26.27
2023-07-25T00:47:10.093Z,26.34
2023-07-25T00:49:38.718Z,26.49
2023-07-25T00:52:07.782Z,26.61
2023-07-25T00:54:36.480Z,26.50
2023-07-25T00:57:05.200Z,26.51
2023-07-25T00:59:33.885Z,26.47
2023-07-25T01:02:02.821Z,26.26
2023-07-25T01:04:31.499Z,26.13
2023-07-25T01:07:02.501Z,25.79
2023-07-25T01:09:48.755Z,25.65
2023-07-25T01:12:17.388Z,25.56
2023-07-25T01:14:46.439Z,25.55
2023-07-25T01:17:21.177Z,25.55
2023-07-25T01:19:51.106Z,25.42
2023-07-25T01:22:21.262Z,25.40
2023-07-25T01:24:50.653Z,25.38
2023-07-25T01:27:19.564Z,25.28
2023-07-25T01:29:48.316Z,25.37
2023-07-25T01:32:16.980Z,25.08
2023-07-25T01:34:45.620Z,25.14
2023-07-25T01:37:14.589Z,25.06
2023-07-25T01:39:45.074Z,24.98
2023-07-25T01:42:13.780Z,24.95
2023-07-25T01:44:42.413Z,25.05
2023-07-25T01:47:11.564Z,25.04
2023-07-25T01:49:40.055Z,25.20
2023-07-25T01:52:09.348Z,25.16
2023-07-25T01:54:38.009Z,25.35
2023-07-25T01:57:07.011Z,25.35
2023-07-25T01:59:35.514Z,25.37
2023-07-25T02:02:04.326Z,25.33
2023-07-25T02:04:32.981Z,25.34
2023-07-25T02:07:01.599Z,25.27
2023-07-25T02:09:30.310Z,25.17
2023-07-25T02:12:01.014Z,25.08
2023-07-25T02:14:29.750Z,24.91
2023-07-25T02:16:58.356Z,24.93
2023-07-25T02:19:27.015Z,24.86
2023-07-25T02:21:55.629Z,24.66
2023-07-25T02:24:24.447Z,24.72
2023-07-25T02:26:53.021Z,24.62
2023-07-25T02:29:21.759Z,24.47
2023-07-25T02:31:50.392Z,24.42
2023-07-25T02:34:19.082Z,24.33
2023-07-25T02:36:47.697Z,24.24
2023-07-25T02:39:16.344Z,24.29
2023-07-25T02:41:44.982Z,24.26
2023-07-25T02:44:13.659Z,24.08
2023-07-25T02:46:42.296Z,24.10
2023-07-25T02:49:10.869Z,24.00
2023-07-25T02:51:39.561Z,23.94
2023-07-25T02:54:08.244Z,23.92
2023-07-25T02:56:36.718Z,23.86
2023-07-25T02:59:05.346Z,23.87
2023-07-25T03:01:34.201Z,23.84
2023-07-25T03:04:03.416Z,23.74
2023-07-25T03:06:32.016Z,23.64
2023-07-25T03:09:00.569Z,23.56
2023-07-25T03:11:29.464Z,23.56
2023-07-25T03:13:58.489Z,23.44
2023-07-25T03:16:27.313Z,23.45
2023-07-25T03:18:56.003Z,23.41
2023-07-25T03:21:25.740Z,23.38
2023-07-25T03:23:54.337Z,23.36
2023-07-25T03:26:23.025Z,23.37
2023-07-25T03:28:51.667Z,23.28
2023-07-25T03:31:20.259Z,23.29
2023-07-25T03:33:48.736Z,23.21
2023-07-25T03:36:17.403Z,23.17
2023-07-25T03:38:46.043Z,23.14
2023-07-25T03:41:14.901Z,23.08
2023-07-25T03:43:43.615Z,23.00
2023-07-25T03:46:12.228Z,22.93
2023-07-25T03:48:41.887Z,22.83
2023-07-25T03:51:10.455Z,22.76
2023-07-25T03:53:39.134Z,22.75
2023-07-25T03:56:07.767Z,22.64
2023-07-25T03:58:36.366Z,22.64
2023-07-25T04:01:05.039Z,22.58
2023-07-25T04:03:33.708Z,22.52
2023-07-25T04:06:02.446Z,22.44
2023-07-25T04:08:31.189Z,22.35
2023-07-25T04:10:59.882Z,22.37
2023-07-25T04:13:27.851Z,22.34
2023-07-25T04:15:56.629Z,22.36
2023-07-25T04:18:25.274Z,22.31
2023-07-25T04:20:54.476Z,22.29
2023-07-25T04:23:24.562Z,22.26
2023-07-25T04:25:53.216Z,22.24
2023-07-25T04:28:21.858Z,22.22
2023-07-25T04:30:50.593Z,22.17
2023-07-25T04:33:19.236Z,22.15
2023-07-25T04:35:48.012Z,22.07
2023-07-25T04:38:17.237Z,22.00
2023-07-25T04:40:46.446Z,21.90
2023-07-25T04:43:15.097Z,21.91
2023-07-25T04:45:44.000Z,21.84
2023-07-25T04:48:12.703Z,21.77
2023-07-25T04:50:41.403Z,21.66
2023-07-25T04:53:10.075Z,21.63
2023-07-25T04:55:38.674Z,21.64
2023-07-25T04:58:07.295Z,21.59
2023-07-25T05:00:35.951Z,21.61
2023-07-25T05:03:04.682Z,21.56
2023-07-25T05:05:33.332Z,21.59
2023-07-25T05:08:02.084Z,21.55
2023-07-25T05:10:30.731Z,21.57
2023-07-25T05:12:59.442Z,21.52
2023-07-25T05:15:28.085Z,21.53
2023-07-25T05:17:56.715Z,21.57
2023-07-25T05:20:25.424Z,21.57
2023-07-25T05:22:54.462Z,21.55
2023-07-25T05:25:23.122Z,21.59
2023-07-25T05:27:51.842Z,21.57
2023-07-25T05:30:20.466Z,21.56
2023-07-25T05:32:52.203Z,21.49
2023-07-25T05:35:20.836Z,21.53
2023-07-25T05:37:49.453Z,21.55
2023-07-25T05:40:18.160Z,21.54
2023-07-25T05:42:46.758Z,21.50
2023-07-25T05:45:15.699Z,21.43
2023-07-25T05:47:44.555Z,21.42
2023-07-25T05:50:14.030Z,21.20
2023-07-25T05:52:42.688Z,21.44
2023-07-25T05:55:11.465Z,21.44
2023-07-25T05:57:40.116Z,21.46
2023-07-25T06:00:09.354Z,19.82
2023-07-25T06:02:38.139Z,18.32
2023-07-25T06:05:07.273Z,17.73
2023-07-25T06:07:35.922Z,17.35
2023-07-25T06:10:04.841Z,16.93
2023-07-25T06:12:33.748Z,16.70
2023-07-25T06:15:02.433Z,16.46
2023-07-25T06:17:31.196Z,16.31
2023-07-25T06:19:59.869Z,16.21
2023-07-25T06:22:28.942Z,16.16
2023-07-25T06:24:57.783Z,16.07
2023-07-25T06:27:27.021Z,15.98
2023-07-25T06:29:55.946Z,15.93
2023-07-25T06:32:25.464Z,15.93
2023-07-25T06:34:54.247Z,15.80
2023-07-25T06:37:23.049Z,15.85
2023-07-25T06:39:51.728Z,15.93
2023-07-25T06:42:20.503Z,15.99
2023-07-25T06:44:48.557Z,15.96
2023-07-25T06:47:17.201Z,16.17
2023-07-25T06:49:45.856Z,16.15
2023-07-25T06:52:14.575Z,16.06
2023-07-25T06:54:46.518Z,15.94
2023-07-25T06:57:15.277Z,15.81
2023-07-25T06:59:43.995Z,15.74
2023-07-25T07:02:12.016Z,15.84
2023-07-25T07:04:40.791Z,15.86
2023-07-25T07:07:09.526Z,16.11
2023-07-25T07:09:38.191Z,16.20
2023-07-25T07:12:07.451Z,16.34
2023-07-25T07:14:36.164Z,16.43
2023-07-25T07:17:05.330Z,16.50
2023-07-25T07:19:34.079Z,16.47
2023-07-25T07:22:03.477Z,16.43
2023-07-25T07:24:32.303Z,16.51
2023-07-25T07:27:00.979Z,16.59
2023-07-25T07:29:31.710Z,16.65
2023-07-25T07:32:02.385Z,16.64
2023-07-25T07:34:31.832Z,16.66
2023-07-25T07:37:00.807Z,16.71
2023-07-25T07:39:29.660Z,16.68
2023-07-25T07:41:58.507Z,16.72
2023-07-25T07:44:27.164Z,16.74
2023-07-25T07:46:55.898Z,16.74
2023-07-25T07:49:24.696Z,16.76
2023-07-25T07:52:10.305Z,16.79
2023-07-25T07:54:42.876Z,16.78
2023-07-25T07:57:11.562Z,16.68
2023-07-25T07:59:40.454Z,16.60
2023-07-25T08:02:09.198Z,16.55
2023-07-25T08:04:38.302Z,16.55
2023-07-25T08:07:07.179Z,16.50
2023-07-25T08:09:36.129Z,16.48
2023-07-25T08:12:06.017Z,16.41
2023-07-25T08:14:34.678Z,16.38
2023-07-25T08:17:03.482Z,16.36
2023-07-25T08:19:32.287Z,16.25
2023-07-25T08:22:01.537Z,16.23
2023-07-25T08:24:30.327Z,16.19
2023-07-25T08:26:59.024Z,16.17
2023-07-25T08:29:28.680Z,16.12
2023-07-25T08:31:57.454Z,16.04
2023-07-25T08:34:26.281Z,16.00
2023-07-25T08:36:54.930Z,15.92
2023-07-25T08:39:23.653Z,15.84
2023-07-25T08:41:56.390Z,15.74
2023-07-25T08:44:27.556Z,15.62
2023-07-25T08:46:58.943Z,15.60
2023-07-25T08:49:33.358Z,15.50
2023-07-25T08:52:05.420Z,15.42
2023-07-25T08:54:39.451Z,15.34
2023-07-25T08:57:09.484Z,15.28
2023-07-25T08:59:38.447Z,15.24
2023-07-25T09:02:08.913Z,15.22
2023-07-25T09:04:38.154Z,15.18
2023-07-25T09:07:08.593Z,15.12
2023-07-25T09:09:37.227Z,15.15
2023-07-25T09:12:06.753Z,15.13
2023-07-25T09:14:35.673Z,15.11
2023-07-25T09:17:04.236Z,15.12
2023-07-25T09:19:34.207Z,15.11
2023-07-25T09:22:04.352Z,15.06
2023-07-25T09:24:40.959Z,15.00
2023-07-25T09:27:19.773Z,14.95
2023-07-25T09:29:51.984Z,14.92
2023-07-25T09:32:26.600Z,14.79
2023-07-25T09:35:03.383Z,14.73
2023-07-25T09:37:32.134Z,14.67
2023-07-25T09:40:01.156Z,14.59
2023-07-25T09:42:29.748Z,14.50
2023-07-25T09:44:59.284Z,14.47
2023-07-25T09:47:30.542Z,14.48
2023-07-25T09:49:59.503Z,14.47
2023-07-25T09:52:28.458Z,14.49
2023-07-25T09:54:57.469Z,14.52
2023-07-25T09:57:26.423Z,14.51
2023-07-25T09:59:56.621Z,14.56
2023-07-25T10:02:27.368Z,14.64
2023-07-25T10:04:59.592Z,14.67
2023-07-25T10:07:28.555Z,14.74
2023-07-25T10:09:59.953Z,14.74
2023-07-25T10:12:28.588Z,14.76
2023-07-25T10:14:58.540Z,14.70
2023-07-25T10:17:27.811Z,14.75
2023-07-25T10:19:57.270Z,14.72
2023-07-25T10:22:44.702Z,14.71
2023-07-25T10:25:32.709Z,14.65
2023-07-25T10:28:01.620Z,14.61
2023-07-25T10:30:32.250Z,14.56
2023-07-25T10:33:06.055Z,14.52
2023-07-25T10:35:52.024Z,14.48
2023-07-25T10:38:37.988Z,14.38
2023-07-25T10:41:15.874Z,14.43
2023-07-25T10:43:51.471Z,14.36
2023-07-25T10:46:24.938Z,14.32
2023-07-25T10:48:55.926Z,14.28
2023-07-25T10:51:24.854Z,14.28
2023-07-25T10:54:12.653Z,14.27
2023-07-25T10:56:42.578Z,14.27
2023-07-25T10:59:11.280Z,14.25
2023-07-25T11:01:49.755Z,14.20
2023-07-25T11:04:34.455Z,14.23
2023-07-25T11:07:13.710Z,14.20
2023-07-25T11:09:44.577Z,14.18
2023-07-25T11:12:14.580Z,14.16
2023-07-25T11:14:47.219Z,14.07
2023-07-25T11:17:16.134Z,14.06
2023-07-25T11:19:44.874Z,14.09
2023-07-25T11:22:14.924Z,14.07
2023-07-25T11:24:45.187Z,13.94
2023-07-25T11:27:15.373Z,13.88
2023-07-25T11:29:44.269Z,13.80
2023-07-25T11:32:13.030Z,13.82
2023-07-25T11:34:42.499Z,13.84
2023-07-25T11:37:14.599Z,13.70
2023-07-25T11:39:43.367Z,13.62
2023-07-25T11:42:12.119Z,13.54
2023-07-25T11:44:40.685Z,13.46
2023-07-25T11:47:09.819Z,13.42
2023-07-25T11:49:49.523Z,13.50
2023-07-25T11:52:20.077Z,13.48
2023-07-25T11:54:48.800Z,13.47
2023-07-25T11:57:17.430Z,13.41
2023-07-25T11:59:46.033Z,13.38
2023-07-25T12:02:15.146Z,13.33
2023-07-25T12:04:47.950Z,13.28
2023-07-25T12:07:16.806Z,13.21
2023-07-25T12:09:55.645Z,13.19
2023-07-25T12:12:24.288Z,13.10
2023-07-25T12:15:00.812Z,12.96
2023-07-25T12:17:45.956Z,13.03
2023-07-25T12:20:23.772Z,13.16
2023-07-25T12:23:07.298Z,13.20
2023-07-25T12:25:39.086Z,13.18
2023-07-25T12:28:07.967Z,13.29
2023-07-25T12:30:36.607Z,13.42
2023-07-25T12:33:05.380Z,13.46
2023-07-25T12:35:34.925Z,13.49
2023-07-25T12:38:04.005Z,13.62
2023-07-25T12:40:33.001Z,13.55
2023-07-25T12:43:01.637Z,13.57
2023-07-25T12:45:30.325Z,13.61
2023-07-25T12:47:59.090Z,13.61
2023-07-25T12:50:28.002Z,13.60
2023-07-25T12:52:56.660Z,13.61
2023-07-25T12:55:25.525Z,13.66
2023-07-25T12:57:54.199Z,13.66
2023-07-25T13:00:22.846Z,13.84
2023-07-25T13:02:51.636Z,13.86
2023-07-25T13:05:21.318Z,13.94
2023-07-25T13:07:50.204Z,14.07
2023-07-25T13:10:18.339Z,14.29
2023-07-25T13:12:46.974Z,14.39
2023-07-25T13:15:15.637Z,14.48
2023-07-25T13:17:44.413Z,14.60
2023-07-25T13:20:13.035Z,14.66
2023-07-25T13:22:41.952Z,14.71
2023-07-25T13:25:10.605Z,14.67
2023-07-25T13:27:39.275Z,14.69
2023-07-25T13:30:08.712Z,14.72
2023-07-25T13:32:37.482Z,14.78
2023-07-25T13:35:06.802Z,14.92
2023-07-25T13:37:35.506Z,14.97
2023-07-25T13:40:04.311Z,15.05
2023-07-25T13:42:34.201Z,15.04
2023-07-25T13:45:02.799Z,15.26
2023-07-25T13:47:31.433Z,15.29
2023-07-25T13:50:05.164Z,15.40
2023-07-25T13:52:33.939Z,15.69
2023-07-25T13:55:02.516Z,16.14
2023-07-25T13:57:33.483Z,16.24
2023-07-25T14:00:03.390Z,15.87
2023-07-25T14:02:32.081Z,15.91
2023-07-25T14:05:00.817Z,15.94
2023-07-25T14:07:29.419Z,15.96
2023-07-25T14:09:58.159Z,16.03
2023-07-25T14:12:27.792Z,15.94
2023-07-25T14:14:58.803Z,15.94
2023-07-25T14:17:28.580Z,16.09
2023-07-25T14:19:57.296Z,16.43
2023-07-25T14:22:26.796Z,16.61
2023-07-25T14:24:57.589Z,16.98
2023-07-25T14:27:27.738Z,17.28
2023-07-25T14:29:56.437Z,17.56
2023-07-25T14:32:26.697Z,17.63
2023-07-25T14:34:55.642Z,17.37
2023-07-25T14:37:25.364Z,16.90
2023-07-25T14:39:55.053Z,16.88
2023-07-25T14:42:23.757Z,16.87
2023-07-25T14:44:52.363Z,16.62
2023-07-25T14:47:21.393Z,16.46
2023-07-25T14:49:50.133Z,16.38
2023-07-25T14:52:18.904Z,16.27
2023-07-25T14:54:47.542Z,16.17
2023-07-25T14:57:19.387Z,16.18
2023-07-25T14:59:48.050Z,16.12
2023-07-25T15:02:18.700Z,16.39
2023-07-25T15:04:47.612Z,16.32
2023-07-25T15:07:16.229Z,16.48
2023-07-25T15:09:44.957Z,16.41
2023-07-25T15:12:13.879Z,16.45
2023-07-25T15:14:42.583Z,16.42
2023-07-25T15:17:24.923Z,16.34
2023-07-25T15:20:00.726Z,16.22
2023-07-25T15:22:30.702Z,16.17
2023-07-25T15:24:59.996Z,16.17
2023-07-25T15:27:30.000Z,16.09
2023-07-25T15:29:59.426Z,16.17
2023-07-25T15:32:28.065Z,16.17
2023-07-25T15:34:56.832Z,16.06
2023-07-25T15:37:25.570Z,16.10
2023-07-25T15:39:54.260Z,16.21
2023-07-25T15:42:22.911Z,16.28
2023-07-25T15:44:51.511Z,16.52
2023-07-25T15:47:20.122Z,16.83
2023-07-25T15:49:48.757Z,16.70
2023-07-25T15:52:17.453Z,16.86
2023-07-25T15:54:46.141Z,16.94
2023-07-25T15:57:14.714Z,17.19
2023-07-25T15:59:43.399Z,16.73
2023-07-25T16:02:12.156Z,16.88
2023-07-25T16:04:40.858Z,16.55
2023-07-25T16:07:09.526Z,16.33
2023-07-25T16:09:38.876Z,16.17
2023-07-25T16:12:10.334Z,15.94
2023-07-25T16:14:39.045Z,16.06
2023-07-25T16:17:07.821Z,15.89
2023-07-25T16:19:36.492Z,15.85
2023-07-25T16:22:05.697Z,15.90
2023-07-25T16:24:34.391Z,15.88
2023-07-25T16:27:03.042Z,16.21
2023-07-25T16:29:31.821Z,16.36
2023-07-25T16:32:01.052Z,16.52
2023-07-25T16:34:29.708Z,17.05
2023-07-25T16:36:58.353Z,16.86
2023-07-25T16:39:27.028Z,16.75
2023-07-25T16:41:58.743Z,16.95
2023-07-25T16:44:27.448Z,17.65
2023-07-25T16:46:56.089Z,17.98
2023-07-25T16:49:24.718Z,18.06
2023-07-25T16:51:53.349Z,18.66
2023-07-25T16:54:22.127Z,19.22
2023-07-25T16:56:50.781Z,18.13
2023-07-25T16:59:19.381Z,17.83
2023-07-25T17:01:48.054Z,17.44
2023-07-25T17:04:16.792Z,17.74
2023-07-25T17:06:45.402Z,17.85
2023-07-25T17:09:14.082Z,17.89
2023-07-25T17:11:44.824Z,17.86
2023-07-25T17:14:13.464Z,17.60
2023-07-25T17:16:41.940Z,17.74
2023-07-25T17:19:10.595Z,18.48
2023-07-25T17:21:41.376Z,18.64
2023-07-25T17:24:10.752Z,18.92
2023-07-25T17:26:39.723Z,19.24
2023-07-25T17:29:08.389Z,19.44
2023-07-25T17:31:37.212Z,19.76
2023-07-25T17:34:06.163Z,19.80
2023-07-25T17:36:34.773Z,19.92
2023-07-25T17:39:03.933Z,19.77
2023-07-25T17:41:33.253Z,20.06
2023-07-25T17:44:02.067Z,20.40
2023-07-25T17:46:30.716Z,20.32
2023-07-25T17:49:01.324Z,20.41
2023-07-25T17:51:30.422Z,20.45
2023-07-25T17:53:59.334Z,20.40
2023-07-25T17:56:28.053Z,20.32
2023-07-25T17:58:56.682Z,20.22
2023-07-25T18:01:25.432Z,20.30
2023-07-25T18:03:54.138Z,20.44
2023-07-25T18:06:22.721Z,20.67
2023-07-25T18:08:51.560Z,20.64
2023-07-25T18:11:20.199Z,21.28
2023-07-25T18:13:48.866Z,20.79
2023-07-25T18:16:17.481Z,20.71
2023-07-25T18:18:46.160Z,20.73
2023-07-25T18:21:15.277Z,20.67
2023-07-25T18:23:43.904Z,20.82
2023-07-25T18:26:12.964Z,20.83
2023-07-25T18:28:41.596Z,20.32
2023-07-25T18:31:10.965Z,20.41
2023-07-25T18:33:41.045Z,20.34
2023-07-25T18:36:09.758Z,20.47
2023-07-25T18:38:38.507Z,20.79
2023-07-25T18:41:07.214Z,20.69
2023-07-25T18:43:35.895Z,20.79
2023-07-25T18:46:04.497Z,20.59
2023-07-25T18:48:33.228Z,20.33
2023-07-25T18:51:03.184Z,20.66
2023-07-25T18:53:31.857Z,20.93
2023-07-25T18:56:00.698Z,21.04
2023-07-25T18:58:31.021Z,21.04
2023-07-25T19:00:59.813Z,20.78
2023-07-25T19:03:30.143Z,20.78
2023-07-25T19:05:59.078Z,21.00
2023-07-25T19:08:27.832Z,21.09
2023-07-25T19:10:56.567Z,20.70
2023-07-25T19:13:25.146Z,21.02
2023-07-25T19:15:53.886Z,20.88
2023-07-25T19:18:22.561Z,21.06
2023-07-25T19:20:51.671Z,21.12
2023-07-25T19:23:26.500Z,21.28
2023-07-25T19:26:02.796Z,21.31
2023-07-25T19:28:31.626Z,21.01
2023-07-25T19:31:01.065Z,20.83
2023-07-25T19:33:32.367Z,20.61
2023-07-25T19:36:01.905Z,20.74
2023-07-25T19:38:30.965Z,21.07
2023-07-25T19:40:59.930Z,20.69
2023-07-25T19:43:28.581Z,20.49
2023-07-25T19:46:04.013Z,20.45
2023-07-25T19:48:32.792Z,20.37
2023-07-25T19:51:01.458Z,20.47
2023-07-25T19:53:30.015Z,20.40
2023-07-25T19:55:58.818Z,20.18
2023-07-25T19:58:27.447Z,20.46
2023-07-25T20:00:56.336Z,20.16
2023-07-25T20:03:25.148Z,20.50
2023-07-25T20:05:53.851Z,20.20
2023-07-25T20:08:22.426Z,20.49
2023-07-25T20:10:51.036Z,20.24
2023-07-25T20:13:19.807Z,20.38
2023-07-25T20:15:48.578Z,20.20
2023-07-25T20:18:17.279Z,20.20
2023-07-25T20:20:46.000Z,19.88
2023-07-25T20:23:14.863Z,20.16
2023-07-25T20:25:43.504Z,20.03
2023-07-25T20:28:12.100Z,19.95
2023-07-25T20:30:40.700Z,20.42
2023-07-25T20:33:09.215Z,20.15
2023-07-25T20:35:38.413Z,20.15
2023-07-25T20:38:06.988Z,20.01
2023-07-25T20:40:36.490Z,20.29
2023-07-25T20:43:05.182Z,19.86
2023-07-25T20:45:37.390Z,20.18
2023-07-25T20:48:06.775Z,20.27
2023-07-25T20:50:35.239Z,19.82
2023-07-25T20:53:07.191Z,19.82
2023-07-25T20:55:36.106Z,19.77
2023-07-25T20:58:04.798Z,19.91
2023-07-25T21:00:33.528Z,19.75
2023-07-25T21:03:02.161Z,19.88
2023-07-25T21:05:30.862Z,20.03
2023-07-25T21:07:59.518Z,19.88
2023-07-25T21:10:28.285Z,19.64
2023-07-25T21:12:56.928Z,19.74
2023-07-25T21:15:25.540Z,19.78
2023-07-25T21:18:06.680Z,19.94
2023-07-25T21:20:40.195Z,19.98
2023-07-25T21:23:08.865Z,19.96
2023-07-25T21:25:39.672Z,19.90
2023-07-25T21:28:08.362Z,20.34
2023-07-25T21:30:37.042Z,20.23
2023-07-25T21:33:06.046Z,19.96
2023-07-25T21:35:34.826Z,19.90
2023-07-25T21:38:03.510Z,19.69
2023-07-25T21:40:32.256Z,19.82
2023-07-25T21:43:00.945Z,19.84
2023-07-25T21:45:29.620Z,19.74
2023-07-25T21:47:58.252Z,19.93
2023-07-25T21:50:26.950Z,20.17
2023-07-25T21:52:55.744Z,20.06
2023-07-25T21:55:24.428Z,20.13
2023-07-25T21:57:53.042Z,20.15
2023-07-25T22:00:21.739Z,20.35
2023-07-25T22:02:50.432Z,20.51
2023-07-25T22:05:19.020Z,20.10
2023-07-25T22:07:48.695Z,20.11
2023-07-25T22:10:17.568Z,20.35
2023-07-25T22:12:49.171Z,20.28
2023-07-25T22:15:18.112Z,20.03
2023-07-25T22:17:46.750Z,20.04
2023-07-25T22:20:15.494Z,19.83
2023-07-25T22:22:44.230Z,19.80
2023-07-25T22:25:13.119Z,19.96
2023-07-25T22:27:41.589Z,20.07
2023-07-25T22:30:10.607Z,20.17
2023-07-25T22:32:39.372Z,19.95
2023-07-25T22:35:09.502Z,19.84
2023-07-25T22:37:38.225Z,20.17
2023-07-25T22:40:07.548Z,20.13
2023-07-25T22:42:36.108Z,19.73
2023-07-25T22:45:04.758Z,19.70
2023-07-25T22:47:33.460Z,19.39
2023-07-25T22:50:02.126Z,19.18
2023-07-25T22:52:30.807Z,18.90
2023-07-25T22:54:59.471Z,18.95
2023-07-25T22:57:28.111Z,18.87
2023-07-25T22:59:56.752Z,18.80
2023-07-25T23:02:25.489Z,18.84
2023-07-25T23:04:54.092Z,18.88
2023-07-25T23:07:22.711Z,18.95
2023-07-25T23:09:52.668Z,18.93
2023-07-25T23:12:23.574Z,18.92
2023-07-25T23:14:52.852Z,19.01
2023-07-25T23:17:21.367Z,19.11
2023-07-25T23:19:49.990Z,18.89
2023-07-25T23:22:18.666Z,18.81
2023-07-25T23:24:47.371Z,18.53
2023-07-25T23:27:16.067Z,18.52
2023-07-25T23:29:44.928Z,18.37
2023-07-25T23:32:13.531Z,18.30
2023-07-25T23:34:50.515Z,18.12
2023-07-25T23:37:19.418Z,18.15
2023-07-25T23:39:47.351Z,17.89
2023-07-25T23:42:17.418Z,17.91
2023-07-25T23:44:46.045Z,17.75
2023-07-25T23:47:14.724Z,17.73
2023-07-25T23:49:43.542Z,17.71
2023-07-25T23:52:12.204Z,17.74
2023-07-25T23:54:40.895Z,17.65
2023-07-25T23:57:09.786Z,17.65
2023-07-25T23:59:38.824Z,17.56
